Bourbonnais, IL (60914)

21:48 CDT le 23 juillet 2016 (GMT -0500)
Quail hallow | | Change Station

Alt. 669 ft 41.16 °N, 87.84 °W | Updated 13 minutes ago

Mostly Cloudy
Nuageux
78.3 ° F
Paraît 81 ° F
N
2.7
Vent Variable Vent de SSO

Aujourd'hui
Haut(e) -- | Bas -- ° F
--% Risque de précip.
Hier
Haut(e) -- | Bas -- ° F
Precip. -- pouce
Pression 29.94 pouce
Visibilité 10.0 Miles terrestres
Nuages Nuageux 11000 ft
indice de chaleur 81 ° F
Point de rosée 70 ° F
Humidité 76%
Précipitations 0.00 pouce
Profondeur de la couche neigeuse Non disponible.
5:39 AM 8:16 PM
Lune gibbeuse décroissante, 80% visible
METAR KJOT 240235Z AUTO 12005KT 10SM BKN110 25/23 A2994 RMK AO2 LTG DSNT W THRU N T02500225
Pression 29.94 pouce
Visibilité 10.0 Miles terrestres
Nuages Nuageux 11000 ft
indice de chaleur 81 ° F
Point de rosée 70 ° F
Humidité 76%
Précipitations 0.00 pouce
Profondeur de la couche neigeuse Non disponible.
5:39 AM 8:16 PM
Lune gibbeuse décroissante, 80% visible
METAR KJOT 240235Z AUTO 12005KT 10SM BKN110 25/23 A2994 RMK AO2 LTG DSNT W THRU N T02500225

10-Day Weather Forecast

Almanac

Astronomie

Jul. 23, 2016 Lever Coucher
Temps réel
Crépuscule civil
Crépuscule nautique
Crépuscule astronomique
Lune
Durée de lumière visible
Longueur du jour
Tomorrow will be .
, % of the Moon is Illuminated

Extrêmes aujourd'hui

State Highs State Lows

Community

WunderPhotos

Upload Photos

1,927,004 Photos téléchargées !

WunderBlog® & News

Nearby

Qualité de l'air

  Qualité de l'air Indice de la qualité de l'air Polluant
Not available.

Épaisseur de neige

Station Depth Altitude

Activité sismique

Ville Distance Mag. Time & Date
Minimum magnitude displayed is 2.5.

Températures des eaux côtières

Lieu Température

Stations

Stations météo à proximité

Emplacement de la station Température Refroidissement éolien Point de rosée Humidité Vent Precip. Alt. Mise à jour Type
                   

Watches & Warnings

There are currently no watches in effect.